sensor_id;sensor_type;location;lat;lon;timestamp;temperature;humidity
21184;DHT22;18176;49.502;11.754;2023-07-08T00:00:54;15.60;99.90
21184;DHT22;18176;49.502;11.754;2023-07-08T00:04:55;15.40;99.90
21184;DHT22;18176;49.502;11.754;2023-07-08T00:08:58;15.40;99.90
21184;DHT22;18176;49.502;11.754;2023-07-08T00:12:58;15.30;99.90
21184;DHT22;18176;49.502;11.754;2023-07-08T00:16:59;15.10;99.90
21184;DHT22;18176;49.502;11.754;2023-07-08T00:20:59;14.90;99.90
21184;DHT22;18176;49.502;11.754;2023-07-08T00:25:03;14.80;99.90
21184;DHT22;18176;49.502;11.754;2023-07-08T00:29:08;14.90;99.90
21184;DHT22;18176;49.502;11.754;2023-07-08T00:33:09;14.80;99.90
21184;DHT22;18176;49.502;11.754;2023-07-08T00:37:13;14.80;99.90
21184;DHT22;18176;49.502;11.754;2023-07-08T00:41:22;14.80;99.90
21184;DHT22;18176;49.502;11.754;2023-07-08T00:45:38;14.80;99.90
21184;DHT22;18176;49.502;11.754;2023-07-08T00:50:02;14.70;99.90
21184;DHT22;18176;49.502;11.754;2023-07-08T00:54:05;14.70;99.90
21184;DHT22;18176;49.502;11.754;2023-07-08T00:58:12;14.70;99.90
21184;DHT22;18176;49.502;11.754;2023-07-08T01:02:14;14.70;99.90
21184;DHT22;18176;49.502;11.754;2023-07-08T01:06:18;14.70;99.90
21184;DHT22;18176;49.502;11.754;2023-07-08T01:10:30;14.50;99.90
21184;DHT22;18176;49.502;11.754;2023-07-08T01:14:37;14.40;99.90
21184;DHT22;18176;49.502;11.754;2023-07-08T01:18:42;14.30;99.90
21184;DHT22;18176;49.502;11.754;2023-07-08T01:22:52;14.20;99.90
21184;DHT22;18176;49.502;11.754;2023-07-08T01:26:54;14.10;99.90
21184;DHT22;18176;49.502;11.754;2023-07-08T01:30:55;14.20;99.90
21184;DHT22;18176;49.502;11.754;2023-07-08T01:35:00;14.30;99.90
21184;DHT22;18176;49.502;11.754;2023-07-08T01:39:06;14.20;99.90
21184;DHT22;18176;49.502;11.754;2023-07-08T01:43:06;14.10;99.90
21184;DHT22;18176;49.502;11.754;2023-07-08T01:47:10;13.90;99.90
21184;DHT22;18176;49.502;11.754;2023-07-08T01:51:14;13.80;99.90
21184;DHT22;18176;49.502;11.754;2023-07-08T01:55:21;13.70;99.90
21184;DHT22;18176;49.502;11.754;2023-07-08T01:59:22;13.60;99.90
21184;DHT22;18176;49.502;11.754;2023-07-08T02:03:23;13.50;99.90
21184;DHT22;18176;49.502;11.754;2023-07-08T02:07:25;13.50;99.90
21184;DHT22;18176;49.502;11.754;2023-07-08T02:11:27;13.60;99.90
21184;DHT22;18176;49.502;11.754;2023-07-08T02:15:28;13.50;99.90
21184;DHT22;18176;49.502;11.754;2023-07-08T02:19:29;13.50;99.90
21184;DHT22;18176;49.502;11.754;2023-07-08T02:23:29;13.50;99.90
21184;DHT22;18176;49.502;11.754;2023-07-08T02:27:32;13.50;99.90
21184;DHT22;18176;49.502;11.754;2023-07-08T02:31:32;13.50;99.90
21184;DHT22;18176;49.502;11.754;2023-07-08T02:35:33;13.40;99.90
21184;DHT22;18176;49.502;11.754;2023-07-08T02:39:34;13.30;99.90
21184;DHT22;18176;49.502;11.754;2023-07-08T02:43:37;13.20;99.90
21184;DHT22;18176;49.502;11.754;2023-07-08T02:47:38;13.00;99.90
21184;DHT22;18176;49.502;11.754;2023-07-08T02:51:38;13.00;99.90
21184;DHT22;18176;49.502;11.754;2023-07-08T02:55:39;12.90;99.90
21184;DHT22;18176;49.502;11.754;2023-07-08T02:59:42;12.90;99.90
21184;DHT22;18176;49.502;11.754;2023-07-08T03:03:42;12.90;99.90
21184;DHT22;18176;49.502;11.754;2023-07-08T03:07:43;13.00;99.90
21184;DHT22;18176;49.502;11.754;2023-07-08T03:11:43;13.00;99.90
21184;DHT22;18176;49.502;11.754;2023-07-08T03:15:47;12.90;99.90
21184;DHT22;18176;49.502;11.754;2023-07-08T03:19:47;12.80;99.90
21184;DHT22;18176;49.502;11.754;2023-07-08T03:23:48;12.70;99.90
21184;DHT22;18176;49.502;11.754;2023-07-08T03:27:49;12.70;99.90
21184;DHT22;18176;49.502;11.754;2023-07-08T03:31:53;12.70;99.90
21184;DHT22;18176;49.502;11.754;2023-07-08T03:35:55;12.60;99.90
21184;DHT22;18176;49.502;11.754;2023-07-08T03:39:55;12.60;99.90
21184;DHT22;18176;49.502;11.754;2023-07-08T03:43:55;12.60;99.90
21184;DHT22;18176;49.502;11.754;2023-07-08T03:47:59;12.50;99.90
21184;DHT22;18176;49.502;11.754;2023-07-08T03:52:01;12.50;99.90
21184;DHT22;18176;49.502;11.754;2023-07-08T03:56:02;12.50;99.90
21184;DHT22;18176;49.502;11.754;2023-07-08T04:00:02;12.50;99.90
21184;DHT22;18176;49.502;11.754;2023-07-08T04:04:13;12.50;99.90
21184;DHT22;18176;49.502;11.754;2023-07-08T04:08:14;12.60;99.90
21184;DHT22;18176;49.502;11.754;2023-07-08T04:12:15;12.60;99.90
21184;DHT22;18176;49.502;11.754;2023-07-08T04:16:17;12.60;99.90
21184;DHT22;18176;49.502;11.754;2023-07-08T04:20:22;12.60;99.90
21184;DHT22;18176;49.502;11.754;2023-07-08T04:24:22;12.60;99.90
21184;DHT22;18176;49.502;11.754;2023-07-08T04:28:23;12.70;99.90
21184;DHT22;18176;49.502;11.754;2023-07-08T04:32:23;12.70;99.90
21184;DHT22;18176;49.502;11.754;2023-07-08T04:36:26;12.80;99.90
21184;DHT22;18176;49.502;11.754;2023-07-08T04:40:27;12.80;99.90
21184;DHT22;18176;49.502;11.754;2023-07-08T04:44:27;12.90;99.90
21184;DHT22;18176;49.502;11.754;2023-07-08T04:48:29;12.90;99.90
21184;DHT22;18176;49.502;11.754;2023-07-08T04:52:32;13.00;99.90
21184;DHT22;18176;49.502;11.754;2023-07-08T04:56:37;13.10;99.90
21184;DHT22;18176;49.502;11.754;2023-07-08T05:00:39;13.10;99.90
21184;DHT22;18176;49.502;11.754;2023-07-08T05:04:40;13.10;99.90
21184;DHT22;18176;49.502;11.754;2023-07-08T05:08:42;13.20;99.90
21184;DHT22;18176;49.502;11.754;2023-07-08T05:12:43;13.30;99.90
21184;DHT22;18176;49.502;11.754;2023-07-08T05:16:43;13.40;99.90
21184;DHT22;18176;49.502;11.754;2023-07-08T05:20:50;13.60;99.90
21184;DHT22;18176;49.502;11.754;2023-07-08T05:24:54;13.80;99.90
21184;DHT22;18176;49.502;11.754;2023-07-08T05:28:55;13.90;99.90
21184;DHT22;18176;49.502;11.754;2023-07-08T05:32:55;14.20;99.90
21184;DHT22;18176;49.502;11.754;2023-07-08T05:36:55;14.30;99.90
21184;DHT22;18176;49.502;11.754;2023-07-08T05:40:59;14.50;99.90
21184;DHT22;18176;49.502;11.754;2023-07-08T05:44:59;14.80;99.90
21184;DHT22;18176;49.502;11.754;2023-07-08T05:48:59;15.00;99.90
21184;DHT22;18176;49.502;11.754;2023-07-08T05:53:00;15.20;99.90
21184;DHT22;18176;49.502;11.754;2023-07-08T05:57:03;15.40;99.90
21184;DHT22;18176;49.502;11.754;2023-07-08T06:01:04;15.60;99.90
21184;DHT22;18176;49.502;11.754;2023-07-08T06:05:06;15.80;99.90
21184;DHT22;18176;49.502;11.754;2023-07-08T06:09:06;16.00;99.90
21184;DHT22;18176;49.502;11.754;2023-07-08T06:13:09;16.10;99.90
21184;DHT22;18176;49.502;11.754;2023-07-08T06:17:10;16.40;99.90
21184;DHT22;18176;49.502;11.754;2023-07-08T06:21:11;16.60;99.90
21184;DHT22;18176;49.502;11.754;2023-07-08T06:25:11;16.80;99.90
21184;DHT22;18176;49.502;11.754;2023-07-08T06:29:14;17.00;99.90
21184;DHT22;18176;49.502;11.754;2023-07-08T06:33:16;17.30;99.90
21184;DHT22;18176;49.502;11.754;2023-07-08T06:37:17;17.60;99.90
21184;DHT22;18176;49.502;11.754;2023-07-08T06:41:17;17.90;99.90
21184;DHT22;18176;49.502;11.754;2023-07-08T06:45:20;18.20;99.90
21184;DHT22;18176;49.502;11.754;2023-07-08T06:49:20;18.40;99.90
21184;DHT22;18176;49.502;11.754;2023-07-08T06:53:21;18.70;99.90
21184;DHT22;18176;49.502;11.754;2023-07-08T06:57:21;19.00;99.90
21184;DHT22;18176;49.502;11.754;2023-07-08T07:01:24;19.20;99.90
21184;DHT22;18176;49.502;11.754;2023-07-08T07:05:24;19.40;99.90
21184;DHT22;18176;49.502;11.754;2023-07-08T07:09:24;19.70;99.90
21184;DHT22;18176;49.502;11.754;2023-07-08T07:13:25;20.00;99.90
21184;DHT22;18176;49.502;11.754;2023-07-08T07:17:28;20.30;99.90
21184;DHT22;18176;49.502;11.754;2023-07-08T07:21:28;20.50;99.90
21184;DHT22;18176;49.502;11.754;2023-07-08T07:25:28;20.80;99.90
21184;DHT22;18176;49.502;11.754;2023-07-08T07:29:35;21.00;99.90
21184;DHT22;18176;49.502;11.754;2023-07-08T07:33:44;21.30;99.90
21184;DHT22;18176;49.502;11.754;2023-07-08T07:37:45;21.50;99.90
21184;DHT22;18176;49.502;11.754;2023-07-08T07:41:46;21.70;99.90
21184;DHT22;18176;49.502;11.754;2023-07-08T07:45:49;22.00;99.90
21184;DHT22;18176;49.502;11.754;2023-07-08T07:49:53;22.30;99.90
21184;DHT22;18176;49.502;11.754;2023-07-08T07:53:53;22.50;99.90
21184;DHT22;18176;49.502;11.754;2023-07-08T07:57:53;22.80;99.90
21184;DHT22;18176;49.502;11.754;2023-07-08T08:01:55;23.10;99.90
21184;DHT22;18176;49.502;11.754;2023-07-08T08:05:58;23.60;99.90
21184;DHT22;18176;49.502;11.754;2023-07-08T08:09:58;24.00;99.90
21184;DHT22;18176;49.502;11.754;2023-07-08T08:14:00;24.50;97.60
21184;DHT22;18176;49.502;11.754;2023-07-08T08:18:01;26.00;95.20
21184;DHT22;18176;49.502;11.754;2023-07-08T08:22:04;27.50;91.30
21184;DHT22;18176;49.502;11.754;2023-07-08T08:26:04;28.20;87.70
21184;DHT22;18176;49.502;11.754;2023-07-08T08:30:07;29.20;78.00
21184;DHT22;18176;49.502;11.754;2023-07-08T08:34:07;29.80;74.20
21184;DHT22;18176;49.502;11.754;2023-07-08T08:38:10;30.20;72.50
21184;DHT22;18176;49.502;11.754;2023-07-08T08:42:19;30.30;68.40
21184;DHT22;18176;49.502;11.754;2023-07-08T08:46:29;30.70;64.00
21184;DHT22;18176;49.502;11.754;2023-07-08T08:50:42;30.80;61.00
21184;DHT22;18176;49.502;11.754;2023-07-08T08:54:49;30.20;62.00
21184;DHT22;18176;49.502;11.754;2023-07-08T08:58:54;30.60;59.40
21184;DHT22;18176;49.502;11.754;2023-07-08T09:03:08;31.30;58.30
21184;DHT22;18176;49.502;11.754;2023-07-08T09:07:17;31.70;54.90
21184;DHT22;18176;49.502;11.754;2023-07-08T09:11:34;31.50;53.80
21184;DHT22;18176;49.502;11.754;2023-07-08T09:15:39;30.90;53.30
21184;DHT22;18176;49.502;11.754;2023-07-08T09:19:41;31.00;52.10
21184;DHT22;18176;49.502;11.754;2023-07-08T09:23:45;31.40;51.00
21184;DHT22;18176;49.502;11.754;2023-07-08T09:27:52;32.10;52.20
21184;DHT22;18176;49.502;11.754;2023-07-08T09:31:53;31.90;51.30
21184;DHT22;18176;49.502;11.754;2023-07-08T09:35:54;31.60;51.10
21184;DHT22;18176;49.502;11.754;2023-07-08T09:39:57;32.10;50.90
21184;DHT22;18176;49.502;11.754;2023-07-08T09:44:17;31.20;48.80
21184;DHT22;18176;49.502;11.754;2023-07-08T09:48:25;30.70;50.10
21184;DHT22;18176;49.502;11.754;2023-07-08T09:52:30;30.40;51.00
21184;DHT22;18176;49.502;11.754;2023-07-08T09:56:30;30.00;50.30
21184;DHT22;18176;49.502;11.754;2023-07-08T10:00:40;30.70;50.30
21184;DHT22;18176;49.502;11.754;2023-07-08T10:04:42;31.70;48.80
21184;DHT22;18176;49.502;11.754;2023-07-08T10:08:44;32.40;47.90
21184;DHT22;18176;49.502;11.754;2023-07-08T10:12:53;31.90;48.50
21184;DHT22;18176;49.502;11.754;2023-07-08T10:16:59;32.70;47.60
21184;DHT22;18176;49.502;11.754;2023-07-08T10:21:07;33.10;46.40
21184;DHT22;18176;49.502;11.754;2023-07-08T10:25:28;33.50;46.30
21184;DHT22;18176;49.502;11.754;2023-07-08T10:29:37;34.10;44.50
21184;DHT22;18176;49.502;11.754;2023-07-08T10:34:00;35.20;44.50
21184;DHT22;18176;49.502;11.754;2023-07-08T10:38:27;34.90;43.10
21184;DHT22;18176;49.502;11.754;2023-07-08T10:47:42;37.10;39.80
21184;DHT22;18176;49.502;11.754;2023-07-08T10:52:02;37.10;36.70
21184;DHT22;18176;49.502;11.754;2023-07-08T10:56:20;37.50;37.90
21184;DHT22;18176;49.502;11.754;2023-07-08T11:00:30;38.60;35.70
21184;DHT22;18176;49.502;11.754;2023-07-08T11:04:49;36.60;36.10
21184;DHT22;18176;49.502;11.754;2023-07-08T11:09:02;36.20;36.90
21184;DHT22;18176;49.502;11.754;2023-07-08T11:13:11;36.00;36.80
21184;DHT22;18176;49.502;11.754;2023-07-08T11:17:18;35.70;37.50
21184;DHT22;18176;49.502;11.754;2023-07-08T11:21:25;34.50;38.50
21184;DHT22;18176;49.502;11.754;2023-07-08T11:25:34;34.90;37.80
21184;DHT22;18176;49.502;11.754;2023-07-08T11:29:39;34.90;36.90
21184;DHT22;18176;49.502;11.754;2023-07-08T11:33:45;35.20;37.40
21184;DHT22;18176;49.502;11.754;2023-07-08T11:37:50;35.20;36.60
21184;DHT22;18176;49.502;11.754;2023-07-08T11:42:04;34.60;37.10
21184;DHT22;18176;49.502;11.754;2023-07-08T11:46:20;35.10;36.40
21184;DHT22;18176;49.502;11.754;2023-07-08T11:50:30;35.50;36.50
21184;DHT22;18176;49.502;11.754;2023-07-08T11:54:35;35.60;35.90
21184;DHT22;18176;49.502;11.754;2023-07-08T11:58:57;36.70;35.60
21184;DHT22;18176;49.502;11.754;2023-07-08T12:03:18;36.40;35.20
21184;DHT22;18176;49.502;11.754;2023-07-08T12:07:28;35.90;35.30
21184;DHT22;18176;49.502;11.754;2023-07-08T12:11:33;35.20;34.90
21184;DHT22;18176;49.502;11.754;2023-07-08T12:15:37;34.80;36.90
21184;DHT22;18176;49.502;11.754;2023-07-08T12:19:42;35.00;37.10
21184;DHT22;18176;49.502;11.754;2023-07-08T12:23:45;35.00;36.50
21184;DHT22;18176;49.502;11.754;2023-07-08T12:27:46;35.20;37.20
21184;DHT22;18176;49.502;11.754;2023-07-08T12:31:49;35.70;35.60
21184;DHT22;18176;49.502;11.754;2023-07-08T12:35:51;36.20;34.50
21184;DHT22;18176;49.502;11.754;2023-07-08T12:39:56;37.20;34.30
21184;DHT22;18176;49.502;11.754;2023-07-08T12:44:02;36.80;33.90
21184;DHT22;18176;49.502;11.754;2023-07-08T12:48:10;35.80;34.90
21184;DHT22;18176;49.502;11.754;2023-07-08T12:52:22;34.80;35.80
21184;DHT22;18176;49.502;11.754;2023-07-08T12:56:23;34.40;35.80
21184;DHT22;18176;49.502;11.754;2023-07-08T13:00:26;33.70;36.80
21184;DHT22;18176;49.502;11.754;2023-07-08T13:04:30;34.60;37.60
21184;DHT22;18176;49.502;11.754;2023-07-08T13:08:35;35.20;36.60
21184;DHT22;18176;49.502;11.754;2023-07-08T13:12:39;35.40;36.90
21184;DHT22;18176;49.502;11.754;2023-07-08T13:16:40;35.60;36.90
21184;DHT22;18176;49.502;11.754;2023-07-08T13:20:46;36.50;34.90
21184;DHT22;18176;49.502;11.754;2023-07-08T13:24:59;35.10;35.20
21184;DHT22;18176;49.502;11.754;2023-07-08T13:29:01;35.20;36.20
21184;DHT22;18176;49.502;11.754;2023-07-08T13:33:16;35.80;36.90
21184;DHT22;18176;49.502;11.754;2023-07-08T13:37:19;36.20;36.10
21184;DHT22;18176;49.502;11.754;2023-07-08T13:41:23;36.60;33.80
21184;DHT22;18176;49.502;11.754;2023-07-08T13:45:27;35.80;35.00
21184;DHT22;18176;49.502;11.754;2023-07-08T13:49:39;34.90;36.50
21184;DHT22;18176;49.502;11.754;2023-07-08T13:53:48;35.80;34.90
21184;DHT22;18176;49.502;11.754;2023-07-08T13:57:57;36.70;34.20
21184;DHT22;18176;49.502;11.754;2023-07-08T14:01:59;37.40;33.90
21184;DHT22;18176;49.502;11.754;2023-07-08T14:06:00;37.40;32.90
21184;DHT22;18176;49.502;11.754;2023-07-08T14:10:07;37.50;35.70
21184;DHT22;18176;49.502;11.754;2023-07-08T14:14:11;37.80;34.20
21184;DHT22;18176;49.502;11.754;2023-07-08T14:18:12;38.00;32.50
21184;DHT22;18176;49.502;11.754;2023-07-08T14:22:23;38.10;33.20
21184;DHT22;18176;49.502;11.754;2023-07-08T14:26:28;38.90;33.40
21184;DHT22;18176;49.502;11.754;2023-07-08T14:30:29;39.80;31.50
21184;DHT22;18176;49.502;11.754;2023-07-08T14:34:29;39.60;30.70
21184;DHT22;18176;49.502;11.754;2023-07-08T14:38:29;39.20;30.90
21184;DHT22;18176;49.502;11.754;2023-07-08T14:42:32;39.30;31.00
21184;DHT22;18176;49.502;11.754;2023-07-08T14:46:32;39.90;30.70
21184;DHT22;18176;49.502;11.754;2023-07-08T14:50:33;39.90;30.40
21184;DHT22;18176;49.502;11.754;2023-07-08T14:54:33;39.00;31.10
21184;DHT22;18176;49.502;11.754;2023-07-08T14:58:39;39.60;32.00
21184;DHT22;18176;49.502;11.754;2023-07-08T15:02:44;40.10;30.30
21184;DHT22;18176;49.502;11.754;2023-07-08T15:06:47;40.60;30.00
21184;DHT22;18176;49.502;11.754;2023-07-08T15:10:49;40.20;30.10
21184;DHT22;18176;49.502;11.754;2023-07-08T15:14:54;39.70;30.00
21184;DHT22;18176;49.502;11.754;2023-07-08T15:18:54;39.10;30.40
21184;DHT22;18176;49.502;11.754;2023-07-08T15:22:55;38.90;31.60
21184;DHT22;18176;49.502;11.754;2023-07-08T15:26:55;39.60;31.20
21184;DHT22;18176;49.502;11.754;2023-07-08T15:31:01;39.40;30.50
21184;DHT22;18176;49.502;11.754;2023-07-08T15:35:07;38.90;31.20
21184;DHT22;18176;49.502;11.754;2023-07-08T15:39:11;39.60;31.60
21184;DHT22;18176;49.502;11.754;2023-07-08T15:43:14;39.90;30.10
21184;DHT22;18176;49.502;11.754;2023-07-08T15:47:18;40.70;29.40
21184;DHT22;18176;49.502;11.754;2023-07-08T15:51:18;39.90;29.50
21184;DHT22;18176;49.502;11.754;2023-07-08T15:55:23;38.90;31.20
21184;DHT22;18176;49.502;11.754;2023-07-08T15:59:28;37.90;33.30
21184;DHT22;18176;49.502;11.754;2023-07-08T16:03:35;39.20;32.00
21184;DHT22;18176;49.502;11.754;2023-07-08T16:07:36;40.30;30.10
21184;DHT22;18176;49.502;11.754;2023-07-08T16:11:36;39.90;30.20
21184;DHT22;18176;49.502;11.754;2023-07-08T16:15:37;38.20;31.20
21184;DHT22;18176;49.502;11.754;2023-07-08T16:19:42;36.90;33.50
21184;DHT22;18176;49.502;11.754;2023-07-08T16:23:42;36.50;32.30
21184;DHT22;18176;49.502;11.754;2023-07-08T16:27:44;36.30;32.60
21184;DHT22;18176;49.502;11.754;2023-07-08T16:31:47;36.80;34.70
21184;DHT22;18176;49.502;11.754;2023-07-08T16:35:50;38.10;32.50
21184;DHT22;18176;49.502;11.754;2023-07-08T16:39:51;39.30;30.70
21184;DHT22;18176;49.502;11.754;2023-07-08T16:43:52;40.00;30.50
21184;DHT22;18176;49.502;11.754;2023-07-08T16:47:53;40.20;29.90
21184;DHT22;18176;49.502;11.754;2023-07-08T16:51:56;40.30;30.00
21184;DHT22;18176;49.502;11.754;2023-07-08T16:55:57;40.30;29.70
21184;DHT22;18176;49.502;11.754;2023-07-08T17:00:00;38.90;29.80
21184;DHT22;18176;49.502;11.754;2023-07-08T17:04:01;37.90;30.20
21184;DHT22;18176;49.502;11.754;2023-07-08T17:08:04;37.20;32.40
21184;DHT22;18176;49.502;11.754;2023-07-08T17:12:06;37.60;31.90
21184;DHT22;18176;49.502;11.754;2023-07-08T17:16:11;37.60;31.10
21184;DHT22;18176;49.502;11.754;2023-07-08T17:20:17;37.90;30.70
21184;DHT22;18176;49.502;11.754;2023-07-08T17:24:23;38.00;30.60
21184;DHT22;18176;49.502;11.754;2023-07-08T17:28:23;37.90;31.40
21184;DHT22;18176;49.502;11.754;2023-07-08T17:32:24;37.90;31.30
21184;DHT22;18176;49.502;11.754;2023-07-08T17:36:28;38.10;30.70
21184;DHT22;18176;49.502;11.754;2023-07-08T17:40:33;36.90;31.10
21184;DHT22;18176;49.502;11.754;2023-07-08T17:44:34;36.70;32.90
21184;DHT22;18176;49.502;11.754;2023-07-08T17:48:34;37.00;32.80
21184;DHT22;18176;49.502;11.754;2023-07-08T17:52:36;37.40;33.30
21184;DHT22;18176;49.502;11.754;2023-07-08T17:56:41;37.20;33.20
21184;DHT22;18176;49.502;11.754;2023-07-08T18:00:47;36.30;34.90
21184;DHT22;18176;49.502;11.754;2023-07-08T18:04:48;36.00;35.60
21184;DHT22;18176;49.502;11.754;2023-07-08T18:08:52;35.80;35.10
21184;DHT22;18176;49.502;11.754;2023-07-08T18:12:56;35.30;35.10
21184;DHT22;18176;49.502;11.754;2023-07-08T18:16:59;34.40;37.50
21184;DHT22;18176;49.502;11.754;2023-07-08T18:20:59;33.10;39.80
21184;DHT22;18176;49.502;11.754;2023-07-08T18:25:10;31.80;41.70
21184;DHT22;18176;49.502;11.754;2023-07-08T18:29:14;31.00;43.50
21184;DHT22;18176;49.502;11.754;2023-07-08T18:33:16;30.40;44.60
21184;DHT22;18176;49.502;11.754;2023-07-08T18:37:17;29.70;46.30
21184;DHT22;18176;49.502;11.754;2023-07-08T18:41:19;29.10;48.20
21184;DHT22;18176;49.502;11.754;2023-07-08T18:45:24;28.80;49.40
21184;DHT22;18176;49.502;11.754;2023-07-08T18:49:24;28.40;50.20
21184;DHT22;18176;49.502;11.754;2023-07-08T18:53:26;28.10;50.80
21184;DHT22;18176;49.502;11.754;2023-07-08T18:57:27;28.00;50.80
21184;DHT22;18176;49.502;11.754;2023-07-08T19:01:35;27.90;51.40
21184;DHT22;18176;49.502;11.754;2023-07-08T19:05:38;27.70;51.50
21184;DHT22;18176;49.502;11.754;2023-07-08T19:09:39;27.50;52.10
21184;DHT22;18176;49.502;11.754;2023-07-08T19:13:40;27.30;53.20
21184;DHT22;18176;49.502;11.754;2023-07-08T19:17:43;27.00;53.50
21184;DHT22;18176;49.502;11.754;2023-07-08T19:21:44;26.80;54.70
21184;DHT22;18176;49.502;11.754;2023-07-08T19:25:45;26.50;55.10
21184;DHT22;18176;49.502;11.754;2023-07-08T19:29:45;26.30;55.50
21184;DHT22;18176;49.502;11.754;2023-07-08T19:33:52;26.10;57.70
21184;DHT22;18176;49.502;11.754;2023-07-08T19:37:54;25.90;58.00
21184;DHT22;18176;49.502;11.754;2023-07-08T19:41:54;25.60;57.90
21184;DHT22;18176;49.502;11.754;2023-07-08T19:45:55;25.40;59.20
21184;DHT22;18176;49.502;11.754;2023-07-08T19:49:59;25.20;59.40
21184;DHT22;18176;49.502;11.754;2023-07-08T19:54:01;25.00;59.60
21184;DHT22;18176;49.502;11.754;2023-07-08T19:58:02;24.80;61.80
21184;DHT22;18176;49.502;11.754;2023-07-08T20:02:05;24.70;63.00
21184;DHT22;18176;49.502;11.754;2023-07-08T20:06:17;24.50;64.20
21184;DHT22;18176;49.502;11.754;2023-07-08T20:10:19;24.30;64.80
21184;DHT22;18176;49.502;11.754;2023-07-08T20:14:20;24.20;64.80
21184;DHT22;18176;49.502;11.754;2023-07-08T20:18:27;24.10;64.50
21184;DHT22;18176;49.502;11.754;2023-07-08T20:22:34;23.90;68.20
21184;DHT22;18176;49.502;11.754;2023-07-08T20:26:37;23.70;69.00
21184;DHT22;18176;49.502;11.754;2023-07-08T20:30:42;23.60;69.60
21184;DHT22;18176;49.502;11.754;2023-07-08T20:34:44;23.50;70.80
21184;DHT22;18176;49.502;11.754;2023-07-08T20:38:47;23.50;71.80
21184;DHT22;18176;49.502;11.754;2023-07-08T20:42:48;23.40;72.10
21184;DHT22;18176;49.502;11.754;2023-07-08T20:46:50;23.30;72.50
21184;DHT22;18176;49.502;11.754;2023-07-08T20:50:54;23.10;73.10
21184;DHT22;18176;49.502;11.754;2023-07-08T20:54:57;23.10;73.40
21184;DHT22;18176;49.502;11.754;2023-07-08T20:58:58;23.00;74.10
21184;DHT22;18176;49.502;11.754;2023-07-08T21:02:59;22.80;73.30
21184;DHT22;18176;49.502;11.754;2023-07-08T21:07:00;22.60;75.20
21184;DHT22;18176;49.502;11.754;2023-07-08T21:11:05;22.60;75.90
21184;DHT22;18176;49.502;11.754;2023-07-08T21:15:08;22.50;76.70
21184;DHT22;18176;49.502;11.754;2023-07-08T21:19:09;22.30;78.20
21184;DHT22;18176;49.502;11.754;2023-07-08T21:23:14;22.20;81.00
21184;DHT22;18176;49.502;11.754;2023-07-08T21:27:30;21.90;81.70
21184;DHT22;18176;49.502;11.754;2023-07-08T21:31:31;21.60;83.80
21184;DHT22;18176;49.502;11.754;2023-07-08T21:35:32;21.50;85.20
21184;DHT22;18176;49.502;11.754;2023-07-08T21:39:33;21.40;86.30
21184;DHT22;18176;49.502;11.754;2023-07-08T21:43:36;21.30;87.00
21184;DHT22;18176;49.502;11.754;2023-07-08T21:47:36;21.20;87.50
21184;DHT22;18176;49.502;11.754;2023-07-08T21:51:37;21.10;89.10
21184;DHT22;18176;49.502;11.754;2023-07-08T21:55:38;21.00;89.70
21184;DHT22;18176;49.502;11.754;2023-07-08T21:59:41;20.90;90.20
21184;DHT22;18176;49.502;11.754;2023-07-08T22:03:42;20.80;90.90
21184;DHT22;18176;49.502;11.754;2023-07-08T22:07:43;20.70;91.00
21184;DHT22;18176;49.502;11.754;2023-07-08T22:11:44;20.50;91.90
21184;DHT22;18176;49.502;11.754;2023-07-08T22:15:46;20.40;93.00
21184;DHT22;18176;49.502;11.754;2023-07-08T22:19:47;20.30;94.20
21184;DHT22;18176;49.502;11.754;2023-07-08T22:23:47;20.20;94.80
21184;DHT22;18176;49.502;11.754;2023-07-08T22:27:47;20.10;95.30
21184;DHT22;18176;49.502;11.754;2023-07-08T22:31:50;20.10;95.50
21184;DHT22;18176;49.502;11.754;2023-07-08T22:35:50;20.00;96.50
21184;DHT22;18176;49.502;11.754;2023-07-08T22:39:50;19.90;97.10
21184;DHT22;18176;49.502;11.754;2023-07-08T22:43:51;19.70;97.90
21184;DHT22;18176;49.502;11.754;2023-07-08T22:47:54;19.60;99.00
21184;DHT22;18176;49.502;11.754;2023-07-08T22:51:56;19.50;99.90
21184;DHT22;18176;49.502;11.754;2023-07-08T22:55:57;19.30;99.90
21184;DHT22;18176;49.502;11.754;2023-07-08T22:59:58;19.10;99.90
21184;DHT22;18176;49.502;11.754;2023-07-08T23:04:01;19.00;99.90
21184;DHT22;18176;49.502;11.754;2023-07-08T23:08:01;19.10;99.90
21184;DHT22;18176;49.502;11.754;2023-07-08T23:12:03;19.00;99.90
21184;DHT22;18176;49.502;11.754;2023-07-08T23:16:18;19.00;99.90
21184;DHT22;18176;49.502;11.754;2023-07-08T23:20:25;18.90;99.90
21184;DHT22;18176;49.502;11.754;2023-07-08T23:24:25;18.90;99.90
21184;DHT22;18176;49.502;11.754;2023-07-08T23:28:25;19.00;99.90
21184;DHT22;18176;49.502;11.754;2023-07-08T23:32:25;19.00;99.90
21184;DHT22;18176;49.502;11.754;2023-07-08T23:36:32;18.90;99.90
21184;DHT22;18176;49.502;11.754;2023-07-08T23:40:34;18.80;99.90
21184;DHT22;18176;49.502;11.754;2023-07-08T23:44:34;18.70;99.90
21184;DHT22;18176;49.502;11.754;2023-07-08T23:48:35;18.70;99.90
21184;DHT22;18176;49.502;11.754;2023-07-08T23:52:38;18.60;99.90
21184;DHT22;18176;49.502;11.754;2023-07-08T23:56:38;18.50;99.90
